Time;durP1;ratioP1;P1;durP2;ratioP2;P2;SDS_P1;SDS_P2;PMS_P1;PMS_P2;Temp;Humidity;BMP_temperature;BMP_pressure;BME280_temperature;BME280_humidity;BME280_pressure;Samples;Min_cycle;Max_cycle;Signal;HPM_P1;HPM_P2
2022/10/07 00:00:59;;;;;;;;;3.25;3.25;;;;;;;;4998077;28;45302;-68
2022/10/07 00:03:25;;;;;;;;;8.00;4.00;;;;;;;;4998053;28;45211;-68
2022/10/07 00:05:59;;;;;;;;;7.25;5.00;;;;;;;;4997480;28;46582;-68
2022/10/07 00:08:25;;;;;;;;;4.25;4.25;;;;;;;;4997628;28;45439;-68
2022/10/07 00:10:50;;;;;;;;;5.75;4.75;;;;;;;;4997845;28;45319;-68
2022/10/07 00:13:16;;;;;;;;;3.75;3.75;;;;;;;;4997876;28;45465;-68
2022/10/07 00:15:41;;;;;;;;;4.00;4.00;;;;;;;;4997544;28;46196;-68
2022/10/07 00:18:06;;;;;;;;;8.25;4.50;;;;;;;;4997739;28;45433;-68
2022/10/07 00:20:38;;;;;;;;;8.00;4.00;;;;;;;;4997663;28;45283;-68
2022/10/07 00:23:03;;;;;;;;;6.75;5.00;;;;;;;;4997203;28;45397;-68
2022/10/07 00:25:28;;;;;;;;;4.00;4.00;;;;;;;;4997578;28;45484;-68
2022/10/07 00:27:54;;;;;;;;;6.75;2.00;;;;;;;;4997461;28;45367;-68
2022/10/07 00:30:19;;;;;;;;;7.50;3.00;;;;;;;;4997576;28;45206;-68
2022/10/07 00:32:45;;;;;;;;;7.75;5.00;;;;;;;;4997772;28;45264;-68
2022/10/07 00:35:10;;;;;;;;;4.75;3.00;;;;;;;;4997236;28;45726;-68
2022/10/07 00:37:41;;;;;;;;;4.50;4.00;;;;;;;;4997141;28;45317;-68
2022/10/07 00:40:06;;;;;;;;;2.00;1.00;;;;;;;;4997482;28;45294;-68
2022/10/07 00:42:32;;;;;;;;;4.50;2.00;;;;;;;;4997601;28;45334;-68
2022/10/07 00:44:57;;;;;;;;;7.25;4.00;;;;;;;;4997009;28;46110;-68
2022/10/07 00:47:25;;;;;;;;;4.00;4.00;;;;;;;;4997478;28;45290;-68
2022/10/07 00:50:01;;;;;;;;;9.00;6.25;;;;;;;;4997138;28;45512;-68
2022/10/07 00:52:29;;;;;;;;;9.25;5.00;;;;;;;;4997435;28;45420;-68
2022/10/07 00:54:56;;;;;;;;;8.25;5.00;;;;;;;;4997075;28;45401;-68
2022/10/07 00:57:22;;;;;;;;;5.50;4.00;;;;;;;;4996901;28;45302;-68
2022/10/07 00:59:47;;;;;;;;;6.75;4.50;;;;;;;;4997384;28;45345;-68
2022/10/07 01:02:13;;;;;;;;;5.50;3.50;;;;;;;;4997281;28;45545;-68
2022/10/07 01:04:38;;;;;;;;;2.00;2.00;;;;;;;;4996853;28;47200;-68
2022/10/07 01:07:04;;;;;;;;;6.25;5.00;;;;;;;;4996927;28;45333;-68
2022/10/07 01:09:29;;;;;;;;;5.25;3.50;;;;;;;;4996997;28;45504;-68
2022/10/07 01:12:15;;;;;;;;;5.25;3.75;;;;;;;;4997431;28;45433;-68
2022/10/07 01:14:43;;;;;;;;;6.00;4.75;;;;;;;;4996943;28;45563;-68
2022/10/07 01:17:26;;;;;;;;;2.00;2.00;;;;;;;;4996855;28;45365;-68
2022/10/07 01:20:15;;;;;;;;;6.00;4.00;;;;;;;;4996879;28;45382;-68
2022/10/07 01:22:56;;;;;;;;;6.25;3.25;;;;;;;;4997082;28;45460;-68
2022/10/07 01:25:42;;;;;;;;;3.00;3.00;;;;;;;;4997034;28;45477;-68
2022/10/07 01:28:13;;;;;;;;;7.00;6.00;;;;;;;;5014080;28;45341;-68
2022/10/07 01:30:40;;;;;;;;;3.75;3.00;;;;;;;;5014402;28;45447;-68
2022/10/07 01:33:10;;;;;;;;;5.00;5.00;;;;;;;;5014449;28;45427;-68
2022/10/07 01:35:36;;;;;;;;;6.50;2.50;;;;;;;;5016207;28;47221;-68
2022/10/07 01:38:07;;;;;;;;;8.50;3.75;;;;;;;;5017541;28;45322;-68
2022/10/07 01:40:35;;;;;;;;;8.50;3.75;;;;;;;;5017662;28;45251;-68
2022/10/07 01:43:00;;;;;;;;;3.50;2.75;;;;;;;;5017967;28;45390;-68
2022/10/07 01:45:29;;;;;;;;;6.75;3.50;;;;;;;;5017445;28;47212;-68
2022/10/07 01:47:54;;;;;;;;;6.50;3.00;;;;;;;;5016770;28;45572;-69
2022/10/07 01:50:20;;;;;;;;;2.00;2.00;;;;;;;;5016677;28;45420;-69
2022/10/07 01:53:04;;;;;;;;;7.50;3.75;;;;;;;;5017375;28;45512;-71
2022/10/07 01:55:40;;;;;;;;;9.33;6.33;;;;;;;;5014934;28;46458;-71
2022/10/07 01:58:19;;;;;;;;;3.00;2.00;;;;;;;;5016433;28;45483;-71
2022/10/07 02:00:46;;;;;;;;;2.25;2.25;;;;;;;;5016509;28;45391;-71
2022/10/07 02:03:30;;;;;;;;;7.50;3.00;;;;;;;;5017029;28;45528;-70
2022/10/07 02:06:05;;;;;;;;;7.00;2.25;;;;;;;;5018206;28;45531;-72
2022/10/07 02:08:32;;;;;;;;;3.75;2.00;;;;;;;;5018690;28;45472;-72
2022/10/07 02:10:57;;;;;;;;;3.00;2.75;;;;;;;;5018549;28;45556;-72
2022/10/07 02:13:38;;;;;;;;;2.75;2.00;;;;;;;;5018978;28;45484;-72
2022/10/07 02:16:10;;;;;;;;;5.50;5.00;;;;;;;;5018624;28;45345;-72
2022/10/07 02:18:37;;;;;;;;;6.00;4.25;;;;;;;;5018312;28;45472;-72
2022/10/07 02:21:07;;;;;;;;;4.50;2.00;;;;;;;;5012364;28;45462;-71
2022/10/07 02:23:35;;;;;;;;;7.50;2.25;;;;;;;;5007134;28;45483;-71
2022/10/07 02:26:02;;;;;;;;;7.25;3.75;;;;;;;;4998531;28;46720;-72
2022/10/07 02:28:28;;;;;;;;;6.00;1.25;;;;;;;;4998192;28;45457;-71
2022/10/07 02:30:56;;;;;;;;;2.25;2.25;;;;;;;;5002597;28;45469;-71
2022/10/07 02:33:23;;;;;;;;;5.00;2.00;;;;;;;;4998416;28;45485;-71
2022/10/07 02:35:51;;;;;;;;;5.00;5.00;;;;;;;;5002099;28;47285;-72
2022/10/07 02:38:17;;;;;;;;;5.25;4.00;;;;;;;;5000303;28;45581;-72
2022/10/07 02:40:48;;;;;;;;;8.33;6.33;;;;;;;;4998268;28;45315;-71
2022/10/07 02:43:21;;;;;;;;;5.75;2.50;;;;;;;;5013379;28;45267;-73
2022/10/07 02:45:54;;;;;;;;;4.00;3.00;;;;;;;;5001571;28;45416;-73
2022/10/07 02:48:30;;;;;;;;;4.25;4.00;;;;;;;;5012644;28;45600;-73
2022/10/07 02:50:59;;;;;;;;;5.67;4.00;;;;;;;;5016315;28;45452;-74
2022/10/07 02:53:26;;;;;;;;;5.50;4.00;;;;;;;;5018054;28;45297;-73
2022/10/07 02:55:51;;;;;;;;;4.75;3.00;;;;;;;;5017640;28;47604;-73
2022/10/07 02:58:17;;;;;;;;;4.50;4.00;;;;;;;;5018679;28;45353;-71
2022/10/07 03:00:45;;;;;;;;;6.50;3.75;;;;;;;;5018854;28;45462;-70
2022/10/07 03:03:10;;;;;;;;;7.75;4.25;;;;;;;;5018846;28;45438;-70
2022/10/07 03:05:35;;;;;;;;;7.00;4.75;;;;;;;;5018551;28;45362;-70
2022/10/07 03:08:06;;;;;;;;;3.75;2.50;;;;;;;;5018284;28;45452;-70
2022/10/07 03:10:31;;;;;;;;;2.75;2.00;;;;;;;;5018182;28;45324;-70
2022/10/07 03:12:56;;;;;;;;;5.00;4.00;;;;;;;;5018718;28;45248;-70
2022/10/07 03:15:22;;;;;;;;;5.00;3.25;;;;;;;;5018311;28;45400;-70
2022/10/07 03:17:47;;;;;;;;;5.33;4.00;;;;;;;;5017829;28;45474;-70
2022/10/07 03:20:14;;;;;;;;;5.25;3.75;;;;;;;;5018398;28;45467;-70
2022/10/07 03:22:39;;;;;;;;;4.50;2.00;;;;;;;;5018478;28;45325;-70
2022/10/07 03:25:04;;;;;;;;;5.25;3.00;;;;;;;;5017737;28;45655;-71
2022/10/07 03:27:30;;;;;;;;;4.50;4.00;;;;;;;;5018063;28;45232;-70
2022/10/07 03:29:57;;;;;;;;;6.25;3.75;;;;;;;;5018208;28;45762;-70
2022/10/07 03:32:22;;;;;;;;;3.00;3.00;;;;;;;;5018296;28;45430;-70
2022/10/07 03:34:47;;;;;;;;;4.50;3.00;;;;;;;;5017979;28;46201;-71
2022/10/07 03:37:13;;;;;;;;;11.33;5.00;;;;;;;;5017931;28;45579;-70
2022/10/07 03:39:38;;;;;;;;;6.33;5.00;;;;;;;;5017809;28;45407;-70
2022/10/07 03:42:04;;;;;;;;;6.75;2.50;;;;;;;;5018256;28;45412;-71
2022/10/07 03:44:29;;;;;;;;;5.25;3.00;;;;;;;;5016642;28;46403;-70
2022/10/07 03:46:54;;;;;;;;;6.00;3.50;;;;;;;;5017624;28;45531;-70
2022/10/07 03:49:19;;;;;;;;;3.25;3.25;;;;;;;;5017875;28;45298;-70
2022/10/07 03:51:45;;;;;;;;;2.75;2.00;;;;;;;;5017962;28;45379;-71
2022/10/07 03:54:10;;;;;;;;;4.00;2.00;;;;;;;;5017443;28;46237;-70
2022/10/07 03:56:35;;;;;;;;;3.00;3.00;;;;;;;;5017416;28;45314;-71
2022/10/07 03:59:01;;;;;;;;;3.00;2.00;;;;;;;;5017041;28;45445;-70
2022/10/07 04:01:30;;;;;;;;;4.25;3.50;;;;;;;;5017903;28;45433;-70
2022/10/07 04:03:55;;;;;;;;;6.00;2.00;;;;;;;;5017588;28;45596;-70
2022/10/07 04:06:20;;;;;;;;;3.50;2.50;;;;;;;;5017637;28;45266;-70
2022/10/07 04:08:49;;;;;;;;;4.50;4.00;;;;;;;;5017092;28;45301;-70
2022/10/07 04:11:16;;;;;;;;;3.75;2.50;;;;;;;;5017751;28;45383;-70
2022/10/07 04:13:41;;;;;;;;;5.25;2.50;;;;;;;;5017343;28;46473;-70
2022/10/07 04:16:10;;;;;;;;;3.25;1.75;;;;;;;;5016922;28;45904;-70
2022/10/07 04:18:35;;;;;;;;;1.50;1.50;;;;;;;;5017750;28;45480;-70
2022/10/07 04:21:00;;;;;;;;;6.25;3.00;;;;;;;;5017698;28;45503;-70
2022/10/07 04:23:26;;;;;;;;;2.00;2.00;;;;;;;;5016416;28;47408;-70
2022/10/07 04:25:52;;;;;;;;;2.50;2.50;;;;;;;;5017419;28;45393;-70
2022/10/07 04:28:18;;;;;;;;;6.00;5.75;;;;;;;;5016831;28;45496;-70
2022/10/07 04:30:47;;;;;;;;;7.50;3.75;;;;;;;;5017467;28;45396;-72
2022/10/07 04:33:13;;;;;;;;;4.50;2.75;;;;;;;;5015791;28;48120;-72
2022/10/07 04:35:38;;;;;;;;;4.50;3.50;;;;;;;;5017247;28;45464;-73
2022/10/07 04:38:06;;;;;;;;;6.00;1.25;;;;;;;;5016875;28;45462;-70
2022/10/07 04:40:32;;;;;;;;;3.75;2.00;;;;;;;;5017468;28;45361;-70
2022/10/07 04:45:41;;;;;;;;;7.75;2.75;;;;;;;;5017068;28;45317;-71
2022/10/07 04:48:06;;;;;;;;;7.75;3.50;;;;;;;;5017002;28;45604;-71
2022/10/07 04:50:33;;;;;;;;;3.75;3.00;;;;;;;;5017298;28;45314;-70
2022/10/07 04:52:58;;;;;;;;;3.75;3.00;;;;;;;;5016410;28;46184;-71
2022/10/07 04:55:25;;;;;;;;;6.75;3.50;;;;;;;;5016965;28;45434;-71
2022/10/07 04:57:50;;;;;;;;;4.75;3.75;;;;;;;;5017013;28;45357;-71
2022/10/07 05:00:15;;;;;;;;;7.50;3.25;;;;;;;;5016650;28;45456;-71
2022/10/07 05:02:40;;;;;;;;;4.00;3.00;;;;;;;;5016809;28;45363;-70
2022/10/07 05:05:06;;;;;;;;;2.50;2.25;;;;;;;;5016916;28;45420;-70
2022/10/07 05:07:31;;;;;;;;;23.00;19.00;;;;;;;;5016445;28;45567;-68
2022/10/07 05:09:56;;;;;;;;;10.67;7.00;;;;;;;;5019493;28;45410;-69
2022/10/07 05:12:22;;;;;;;;;8.75;4.00;;;;;;;;5020161;28;46688;-69
2022/10/07 05:14:48;;;;;;;;;4.50;4.50;;;;;;;;5019297;28;45338;-69
2022/10/07 05:17:13;;;;;;;;;15.00;10.00;;;;;;;;5019858;28;45342;-69
2022/10/07 05:19:39;;;;;;;;;9.67;4.33;;;;;;;;5020336;28;45432;-69
2022/10/07 05:22:04;;;;;;;;;7.67;7.67;;;;;;;;5019974;28;46122;-69
2022/10/07 05:24:30;;;;;;;;;6.00;5.67;;;;;;;;5019508;28;45444;-69
2022/10/07 05:26:55;;;;;;;;;6.75;5.00;;;;;;;;5020112;28;45420;-69
2022/10/07 05:29:20;;;;;;;;;11.00;5.50;;;;;;;;5019715;28;45476;-70
2022/10/07 05:31:47;;;;;;;;;12.00;12.00;;;;;;;;5019481;28;46235;-69
2022/10/07 05:34:13;;;;;;;;;4.50;4.50;;;;;;;;5020098;28;45361;-69
2022/10/07 05:36:39;;;;;;;;;4.25;3.75;;;;;;;;5019866;28;45358;-69
2022/10/07 05:39:04;;;;;;;;;3.75;3.50;;;;;;;;5021895;28;45645;-68
2022/10/07 05:41:29;;;;;;;;;9.25;5.75;;;;;;;;5030459;28;45340;-69
2022/10/07 05:43:54;;;;;;;;;12.00;9.00;;;;;;;;5019621;28;45488;-69
2022/10/07 05:46:20;;;;;;;;;6.33;5.33;;;;;;;;5019942;28;45428;-71
2022/10/07 05:48:46;;;;;;;;;6.00;4.00;;;;;;;;5019826;28;45484;-70
2022/10/07 05:51:13;;;;;;;;;5.00;4.00;;;;;;;;5018842;28;46497;-69
2022/10/07 05:53:40;;;;;;;;;10.67;6.00;;;;;;;;5019308;28;45562;-72
2022/10/07 05:56:05;;;;;;;;;10.67;6.33;;;;;;;;5019689;28;45359;-72
2022/10/07 05:58:31;;;;;;;;;8.25;6.00;;;;;;;;5019431;28;45467;-71
2022/10/07 06:00:57;;;;;;;;;8.00;6.00;;;;;;;;5019435;28;46359;-71
2022/10/07 06:03:24;;;;;;;;;9.25;7.00;;;;;;;;5019343;28;45426;-72
2022/10/07 06:05:49;;;;;;;;;9.00;8.00;;;;;;;;5018487;28;45551;-72
2022/10/07 06:08:16;;;;;;;;;14.67;11.33;;;;;;;;5019416;28;45412;-72
2022/10/07 06:13:25;;;;;;;;;10.25;8.00;;;;;;;;5002516;28;45505;-70
2022/10/07 06:15:50;;;;;;;;;12.00;9.00;;;;;;;;5008823;28;45640;-70
2022/10/07 06:18:15;;;;;;;;;10.25;8.50;;;;;;;;5007403;28;45451;-69
2022/10/07 06:20:41;;;;;;;;;13.67;10.00;;;;;;;;5004263;28;45638;-70
2022/10/07 06:23:06;;;;;;;;;17.33;14.00;;;;;;;;4997286;28;45514;-69
2022/10/07 06:25:31;;;;;;;;;11.00;11.00;;;;;;;;4997820;28;45657;-70
2022/10/07 06:27:57;;;;;;;;;7.33;5.67;;;;;;;;5005344;28;45437;-70
2022/10/07 06:30:24;;;;;;;;;11.00;8.00;;;;;;;;5017629;28;46209;-70
2022/10/07 06:32:49;;;;;;;;;30.33;21.33;;;;;;;;5017020;28;45350;-70
2022/10/07 06:35:14;;;;;;;;;13.00;10.67;;;;;;;;5017453;28;45251;-70
2022/10/07 06:37:39;;;;;;;;;14.00;11.00;;;;;;;;5017728;28;45429;-70
2022/10/07 06:40:05;;;;;;;;;10.67;8.00;;;;;;;;5016829;28;45453;-70
2022/10/07 06:42:30;;;;;;;;;8.00;7.00;;;;;;;;5017449;28;45569;-70
2022/10/07 06:44:55;;;;;;;;;13.67;10.67;;;;;;;;5016771;28;45444;-70
2022/10/07 06:47:21;;;;;;;;;9.00;7.00;;;;;;;;5016991;28;45622;-69
2022/10/07 06:49:46;;;;;;;;;12.00;8.33;;;;;;;;5016953;28;46162;-70
2022/10/07 06:52:11;;;;;;;;;11.25;9.50;;;;;;;;5017142;28;45406;-70
2022/10/07 06:54:37;;;;;;;;;10.00;8.67;;;;;;;;5016884;28;45422;-72
2022/10/07 06:57:02;;;;;;;;;17.67;11.00;;;;;;;;5016702;28;45481;-70
2022/10/07 06:59:27;;;;;;;;;11.00;10.00;;;;;;;;5018388;28;46149;-70
2022/10/07 07:01:52;;;;;;;;;9.33;7.00;;;;;;;;5018463;28;45547;-70
2022/10/07 07:04:17;;;;;;;;;10.67;8.33;;;;;;;;5018284;28;45513;-70
2022/10/07 07:06:43;;;;;;;;;8.00;8.00;;;;;;;;5018870;28;45266;-70
2022/10/07 07:09:09;;;;;;;;;11.25;7.25;;;;;;;;5018063;28;45503;-69
2022/10/07 07:11:39;;;;;;;;;11.67;11.33;;;;;;;;5017483;28;45413;-70
2022/10/07 07:14:05;;;;;;;;;9.67;7.00;;;;;;;;5017957;28;45439;-70
2022/10/07 07:16:30;;;;;;;;;13.00;9.00;;;;;;;;5018219;28;45376;-70
2022/10/07 07:18:57;;;;;;;;;9.33;7.67;;;;;;;;5017933;28;45569;-70
2022/10/07 07:21:23;;;;;;;;;15.67;12.67;;;;;;;;5017157;28;45835;-70
2022/10/07 07:23:50;;;;;;;;;12.50;9.00;;;;;;;;5017935;28;45259;-70
2022/10/07 07:26:15;;;;;;;;;8.67;8.33;;;;;;;;5018320;28;45317;-71
2022/10/07 07:28:41;;;;;;;;;11.33;9.00;;;;;;;;5017772;28;46501;-70
2022/10/07 07:31:09;;;;;;;;;14.00;11.00;;;;;;;;5017767;28;45781;-71
2022/10/07 07:33:38;;;;;;;;;17.00;9.00;;;;;;;;5016618;28;45470;-71
2022/10/07 07:36:16;;;;;;;;;11.00;11.00;;;;;;;;5018030;28;45238;-70
2022/10/07 07:38:42;;;;;;;;;12.33;9.33;;;;;;;;5017609;28;45555;-71
2022/10/07 07:41:07;;;;;;;;;12.00;8.00;;;;;;;;5017590;28;45474;-70
2022/10/07 07:43:32;;;;;;;;;12.67;9.00;;;;;;;;5018032;28;45317;-70
2022/10/07 07:45:57;;;;;;;;;12.33;9.67;;;;;;;;5017772;28;45325;-70
2022/10/07 07:48:23;;;;;;;;;10.33;9.00;;;;;;;;5017250;28;45230;-71
2022/10/07 07:50:48;;;;;;;;;9.67;9.00;;;;;;;;5017635;28;45432;-70
2022/10/07 07:53:13;;;;;;;;;11.00;9.00;;;;;;;;5017644;28;45491;-71
2022/10/07 07:55:38;;;;;;;;;7.67;7.00;;;;;;;;5017673;28;45313;-71
2022/10/07 07:58:04;;;;;;;;;11.67;7.33;;;;;;;;5017552;28;46039;-70
2022/10/07 08:00:29;;;;;;;;;11.00;7.33;;;;;;;;5016622;28;45549;-71
2022/10/07 08:02:54;;;;;;;;;9.33;7.67;;;;;;;;5017663;28;45427;-70
2022/10/07 08:05:19;;;;;;;;;6.67;5.00;;;;;;;;5017852;28;45346;-71
2022/10/07 08:07:45;;;;;;;;;7.00;7.00;;;;;;;;5016404;28;46843;-70
2022/10/07 08:10:10;;;;;;;;;6.00;6.00;;;;;;;;5016859;28;45236;-70
2022/10/07 08:12:35;;;;;;;;;9.67;7.33;;;;;;;;5017101;28;45376;-71
2022/10/07 08:15:00;;;;;;;;;6.67;6.00;;;;;;;;5017866;28;45310;-71
2022/10/07 08:17:26;;;;;;;;;24.67;23.33;;;;;;;;5017216;28;46604;-70
2022/10/07 08:19:53;;;;;;;;;12.00;10.67;;;;;;;;5017281;28;45475;-71
2022/10/07 08:22:18;;;;;;;;;7.00;7.00;;;;;;;;5017526;28;45287;-70
2022/10/07 08:24:44;;;;;;;;;7.00;6.00;;;;;;;;5016874;28;45908;-70
2022/10/07 08:27:10;;;;;;;;;13.33;7.67;;;;;;;;5017122;28;47524;-71
2022/10/07 08:29:35;;;;;;;;;6.25;6.00;;;;;;;;5017112;28;45464;-70
2022/10/07 08:32:00;;;;;;;;;7.25;5.00;;;;;;;;5016994;28;45301;-71
2022/10/07 08:34:26;;;;;;;;;14.00;14.00;;;;;;;;5017531;28;45361;-71
2022/10/07 08:36:51;;;;;;;;;9.33;9.00;;;;;;;;5016792;28;47139;-71
2022/10/07 08:39:16;;;;;;;;;10.00;10.00;;;;;;;;5016167;28;45329;-70
2022/10/07 08:41:48;;;;;;;;;6.67;6.67;;;;;;;;5016731;28;45298;-71
2022/10/07 08:44:16;;;;;;;;;9.67;9.00;;;;;;;;5018840;28;45260;-71
2022/10/07 08:46:52;;;;;;;;;8.67;7.00;;;;;;;;5020658;28;47008;-71
2022/10/07 08:49:21;;;;;;;;;8.33;8.00;;;;;;;;5020481;28;45380;-70
2022/10/07 08:51:49;;;;;;;;;9.00;7.00;;;;;;;;5020191;28;45469;-70
2022/10/07 08:54:16;;;;;;;;;11.00;6.00;;;;;;;;5020869;28;45370;-71
2022/10/07 08:56:42;;;;;;;;;9.33;7.67;;;;;;;;5020232;28;46728;-70
2022/10/07 08:59:10;;;;;;;;;14.67;11.00;;;;;;;;5019346;28;45648;-71
2022/10/07 09:01:44;;;;;;;;;8.67;7.33;;;;;;;;5020586;28;45160;-71
2022/10/07 09:04:14;;;;;;;;;9.00;4.75;;;;;;;;5020609;28;45411;-71
2022/10/07 09:06:41;;;;;;;;;9.67;7.00;;;;;;;;5019627;28;47490;-70
2022/10/07 09:09:19;;;;;;;;;5.75;4.75;;;;;;;;5020468;28;45323;-70
2022/10/07 09:11:46;;;;;;;;;7.50;6.25;;;;;;;;5019697;28;45665;-71
2022/10/07 09:14:25;;;;;;;;;7.00;7.00;;;;;;;;5019669;28;45728;-71
2022/10/07 09:16:51;;;;;;;;;6.75;6.75;;;;;;;;5019710;28;45519;-70
2022/10/07 09:19:24;;;;;;;;;15.00;9.00;;;;;;;;5020096;28;45382;-71
2022/10/07 09:21:50;;;;;;;;;9.00;6.00;;;;;;;;5019665;28;45359;-71
2022/10/07 09:24:23;;;;;;;;;10.00;8.00;;;;;;;;5020186;28;45546;-69
2022/10/07 09:26:50;;;;;;;;;5.33;4.00;;;;;;;;5019682;28;46665;-70
2022/10/07 09:29:18;;;;;;;;;8.00;4.33;;;;;;;;5009306;28;45365;-69
2022/10/07 09:31:44;;;;;;;;;3.00;3.00;;;;;;;;5000744;28;45224;-71
2022/10/07 09:34:17;;;;;;;;;7.00;5.00;;;;;;;;5017137;28;45408;-69
2022/10/07 09:37:01;;;;;;;;;4.50;2.75;;;;;;;;5019734;28;45443;-70
2022/10/07 09:39:27;;;;;;;;;4.25;4.00;;;;;;;;5020059;28;45237;-70
2022/10/07 09:41:52;;;;;;;;;2.00;2.00;;;;;;;;5019781;28;45389;-70
2022/10/07 09:44:30;;;;;;;;;3.50;3.50;;;;;;;;5020260;28;45516;-72
2022/10/07 09:47:10;;;;;;;;;7.50;4.25;;;;;;;;5019562;28;45309;-71
2022/10/07 09:49:40;;;;;;;;;2.75;2.75;;;;;;;;5019486;28;45369;-69
2022/10/07 09:52:20;;;;;;;;;3.50;3.50;;;;;;;;5019889;28;45286;-71
2022/10/07 09:54:46;;;;;;;;;3.00;1.00;;;;;;;;5018883;28;45513;-69
2022/10/07 09:57:23;;;;;;;;;2.75;1.25;;;;;;;;5018977;28;46326;-68
2022/10/07 09:59:48;;;;;;;;;4.25;1.25;;;;;;;;5019335;28;45322;-68
2022/10/07 10:02:14;;;;;;;;;2.25;2.25;;;;;;;;5017131;28;45504;-69
2022/10/07 10:04:55;;;;;;;;;3.75;1.50;;;;;;;;5018203;28;45330;-69
2022/10/07 10:07:20;;;;;;;;;1.50;1.50;;;;;;;;5018193;28;46420;-71
2022/10/07 10:09:52;;;;;;;;;5.00;3.00;;;;;;;;5017961;28;45631;-70
2022/10/07 10:12:18;;;;;;;;;2.33;2.00;;;;;;;;5017896;28;45423;-71
2022/10/07 10:14:48;;;;;;;;;2.50;1.00;;;;;;;;5018860;28;45424;-70
2022/10/07 10:17:28;;;;;;;;;5.25;2.00;;;;;;;;5018134;28;46710;-70
2022/10/07 10:19:55;;;;;;;;;1.33;1.33;;;;;;;;5017642;28;45607;-70
2022/10/07 10:22:25;;;;;;;;;1.25;1.25;;;;;;;;5008032;28;45576;-70
2022/10/07 10:27:41;;;;;;;;;3.00;1.33;;;;;;;;5017210;28;45467;-71
2022/10/07 10:30:08;;;;;;;;;5.00;4.00;;;;;;;;5017427;28;45375;-70
2022/10/07 10:32:42;;;;;;;;;3.67;2.00;;;;;;;;5017891;28;45310;-70
2022/10/07 10:35:13;;;;;;;;;2.25;2.00;;;;;;;;5018118;28;45377;-69
2022/10/07 10:37:49;;;;;;;;;0.50;0.50;;;;;;;;5017794;28;46277;-70
2022/10/07 10:40:33;;;;;;;;;4.67;2.33;;;;;;;;5017136;28;45527;-70
2022/10/07 10:43:10;;;;;;;;;2.33;1.00;;;;;;;;5017621;28;45404;-68
2022/10/07 10:45:47;;;;;;;;;3.50;2.00;;;;;;;;5017396;28;45301;-70
2022/10/07 10:48:21;;;;;;;;;1.00;1.00;;;;;;;;5018001;28;46450;-70
2022/10/07 10:50:59;;;;;;;;;3.00;1.00;;;;;;;;5018299;28;45361;-70
2022/10/07 10:53:33;;;;;;;;;2.25;1.25;;;;;;;;5017902;28;45225;-69
2022/10/07 10:56:17;;;;;;;;;1.25;1.00;;;;;;;;5007300;28;46343;-69
2022/10/07 10:58:43;;;;;;;;;3.33;2.00;;;;;;;;5017960;28;46172;-70
2022/10/07 11:01:14;;;;;;;;;4.00;2.00;;;;;;;;5015553;28;45663;-70
2022/10/07 11:03:46;;;;;;;;;4.25;1.00;;;;;;;;5017533;28;45452;-71
2022/10/07 11:06:13;;;;;;;;;1.00;1.00;;;;;;;;5016621;28;46759;-71
2022/10/07 11:08:38;;;;;;;;;25.33;19.67;;;;;;;;5014214;28;47298;-71
2022/10/07 11:11:06;;;;;;;;;48.33;35.33;;;;;;;;5016928;28;45500;-71
2022/10/07 11:13:46;;;;;;;;;22.00;18.00;;;;;;;;5017779;28;45433;-71
2022/10/07 11:16:11;;;;;;;;;15.00;12.67;;;;;;;;5003950;28;45643;-71
2022/10/07 11:18:45;;;;;;;;;12.00;10.67;;;;;;;;5001466;28;46641;-70
2022/10/07 11:21:14;;;;;;;;;9.33;7.00;;;;;;;;4998517;28;45492;-71
2022/10/07 11:23:46;;;;;;;;;19.00;16.00;;;;;;;;4999243;28;45453;-71
2022/10/07 11:26:37;;;;;;;;;12.00;10.67;;;;;;;;4997099;28;45421;-70
2022/10/07 11:29:09;;;;;;;;;13.67;10.67;;;;;;;;5011599;28;46109;-70
2022/10/07 11:31:36;;;;;;;;;21.33;14.67;;;;;;;;4996767;28;46524;-71
2022/10/07 11:34:15;;;;;;;;;7.00;5.33;;;;;;;;4996913;28;45774;-71
2022/10/07 11:37:02;;;;;;;;;2.00;2.00;;;;;;;;5012974;28;45523;-71
2022/10/07 11:39:28;;;;;;;;;2.00;2.00;;;;;;;;5011904;28;46297;-70
2022/10/07 11:42:19;;;;;;;;;18.67;17.00;;;;;;;;5014483;28;45457;-70
2022/10/07 11:44:51;;;;;;;;;6.00;6.00;;;;;;;;5004477;28;45485;-71
2022/10/07 11:47:19;;;;;;;;;3.00;3.00;;;;;;;;5015196;28;45357;-70
2022/10/07 11:49:56;;;;;;;;;9.00;9.00;;;;;;;;5014794;28;46357;-70
2022/10/07 11:52:27;;;;;;;;;6.00;4.33;;;;;;;;5015016;28;45498;-70
2022/10/07 11:55:02;;;;;;;;;12.33;8.67;;;;;;;;5011665;28;45565;-71
2022/10/07 11:57:41;;;;;;;;;8.33;6.00;;;;;;;;5008258;28;45476;-71
2022/10/07 12:00:07;;;;;;;;;7.00;7.00;;;;;;;;5016937;28;46714;-72
2022/10/07 12:02:43;;;;;;;;;6.33;2.67;;;;;;;;5015532;28;45534;-71
2022/10/07 12:05:28;;;;;;;;;4.75;3.50;;;;;;;;5016636;28;45324;-71
2022/10/07 12:08:00;;;;;;;;;8.67;4.00;;;;;;;;5016824;28;45496;-71
2022/10/07 12:10:25;;;;;;;;;12.00;7.33;;;;;;;;5017024;28;45443;-71
2022/10/07 12:13:01;;;;;;;;;8.67;8.67;;;;;;;;5015386;28;45625;-71
2022/10/07 12:15:34;;;;;;;;;9.33;5.33;;;;;;;;5003425;28;45450;-71
2022/10/07 12:18:00;;;;;;;;;11.67;10.33;;;;;;;;5011381;28;45401;-70
2022/10/07 12:20:45;;;;;;;;;9.67;6.33;;;;;;;;5011409;28;45357;-71
2022/10/07 12:23:20;;;;;;;;;5.75;4.75;;;;;;;;5016569;28;45354;-72
2022/10/07 12:25:49;;;;;;;;;6.00;4.00;;;;;;;;5016089;28;45485;-72
2022/10/07 12:28:22;;;;;;;;;4.50;2.00;;;;;;;;5017229;28;45361;-71
2022/10/07 12:30:51;;;;;;;;;5.00;3.00;;;;;;;;5017195;28;46800;-68
2022/10/07 12:33:33;;;;;;;;;4.00;4.00;;;;;;;;5016239;28;45297;-68
2022/10/07 12:36:21;;;;;;;;;12.33;9.33;;;;;;;;5013175;28;45326;-68
2022/10/07 12:38:58;;;;;;;;;8.67;6.00;;;;;;;;5016380;28;45588;-69
2022/10/07 12:41:26;;;;;;;;;10.33;9.33;;;;;;;;5015234;28;46570;-69
2022/10/07 12:43:54;;;;;;;;;1.75;1.75;;;;;;;;5012764;28;45762;-68
2022/10/07 12:46:21;;;;;;;;;5.00;3.67;;;;;;;;5017028;28;45416;-69
2022/10/07 12:48:57;;;;;;;;;6.00;4.67;;;;;;;;5017226;28;45495;-69
2022/10/07 12:51:25;;;;;;;;;6.67;4.67;;;;;;;;5016111;28;46297;-69
2022/10/07 12:53:51;;;;;;;;;3.00;2.00;;;;;;;;5015226;28;45377;-69
2022/10/07 12:56:21;;;;;;;;;2.50;2.50;;;;;;;;5015878;28;45277;-69
2022/10/07 13:02:11;;;;;;;;;2.00;2.00;;;;;;;;5032748;28;45422;-69
2022/10/07 13:04:37;;;;;;;;;4.50;1.25;;;;;;;;5032643;28;45480;-68
2022/10/07 13:07:05;;;;;;;;;3.50;1.00;;;;;;;;5033917;28;45548;-69
2022/10/07 13:09:45;;;;;;;;;2.25;1.00;;;;;;;;5023636;28;45511;-68
2022/10/07 13:12:13;;;;;;;;;5.00;2.00;;;;;;;;5028912;28;45564;-67
2022/10/07 13:14:49;;;;;;;;;1.00;0.00;;;;;;;;5033335;28;45429;-69
2022/10/07 13:17:26;;;;;;;;;3.75;2.75;;;;;;;;5029704;28;45568;-69
2022/10/07 13:20:03;;;;;;;;;2.00;1.00;;;;;;;;5029959;28;45649;-68
2022/10/07 13:22:30;;;;;;;;;3.50;3.25;;;;;;;;5022399;28;46477;-67
2022/10/07 13:24:56;;;;;;;;;1.00;1.00;;;;;;;;5031403;28;45831;-67
2022/10/07 13:27:26;;;;;;;;;4.00;4.00;;;;;;;;5030745;28;45586;-69
2022/10/07 13:29:52;;;;;;;;;3.00;1.25;;;;;;;;5031206;28;45515;-68
2022/10/07 13:32:23;;;;;;;;;4.00;0.75;;;;;;;;5025553;28;46222;-68
2022/10/07 13:34:50;;;;;;;;;2.00;0.75;;;;;;;;5018846;28;45538;-69
2022/10/07 13:37:24;;;;;;;;;1.50;0.75;;;;;;;;5018234;28;46895;-69
2022/10/07 13:39:49;;;;;;;;;7.33;6.33;;;;;;;;4999732;28;45513;-68
2022/10/07 13:42:14;;;;;;;;;1.00;1.00;;;;;;;;5014222;28;45608;-68
2022/10/07 13:44:41;;;;;;;;;4.25;2.00;;;;;;;;5019109;28;45446;-68
2022/10/07 13:47:08;;;;;;;;;0.50;0.00;;;;;;;;5019565;28;45364;-68
2022/10/07 13:49:39;;;;;;;;;2.75;2.00;;;;;;;;5019100;28;45485;-69
2022/10/07 13:52:06;;;;;;;;;3.00;2.33;;;;;;;;5020604;28;46519;-68
2022/10/07 13:54:32;;;;;;;;;1.00;1.00;;;;;;;;5018719;28;45600;-69
2022/10/07 13:56:58;;;;;;;;;1.00;1.00;;;;;;;;5018588;28;45512;-67
2022/10/07 13:59:24;;;;;;;;;2.50;0.50;;;;;;;;5018691;28;45487;-73
2022/10/07 14:01:51;;;;;;;;;0.00;0.00;;;;;;;;5015019;28;47458;-75
2022/10/07 14:04:19;;;;;;;;;1.50;1.00;;;;;;;;5018450;28;45458;-72
2022/10/07 14:07:18;;;;;;;;;2.00;1.75;;;;;;;;5021921;28;45523;-70
2022/10/07 14:09:55;;;;;;;;;2.00;1.00;;;;;;;;5004960;28;45490;-70
2022/10/07 14:12:37;;;;;;;;;0.50;0.00;;;;;;;;5015565;28;45658;-69
2022/10/07 14:15:05;;;;;;;;;1.00;1.00;;;;;;;;5016237;28;45477;-68
2022/10/07 14:17:30;;;;;;;;;1.75;1.75;;;;;;;;5018229;28;45485;-69
2022/10/07 14:19:57;;;;;;;;;2.75;1.25;;;;;;;;5023656;28;45508;-69
2022/10/07 14:22:28;;;;;;;;;1.25;1.25;;;;;;;;5015562;28;45482;-69
2022/10/07 14:24:55;;;;;;;;;1.50;1.00;;;;;;;;5015764;28;45425;-68
2022/10/07 14:27:35;;;;;;;;;2.00;0.00;;;;;;;;5016323;28;45879;-69
2022/10/07 14:30:00;;;;;;;;;4.50;1.00;;;;;;;;5016208;28;45352;-71
2022/10/07 14:35:20;;;;;;;;;3.00;0.33;;;;;;;;5015609;28;45488;-68
2022/10/07 14:37:46;;;;;;;;;2.00;2.00;;;;;;;;5015479;28;45410;-67
2022/10/07 14:40:22;;;;;;;;;4.00;2.00;;;;;;;;5015179;28;45390;-70
2022/10/07 14:42:48;;;;;;;;;0.75;0.75;;;;;;;;5014994;28;45967;-70
2022/10/07 14:45:16;;;;;;;;;1.00;1.00;;;;;;;;5010028;28;45604;-70
2022/10/07 14:47:43;;;;;;;;;2.25;0.50;;;;;;;;5009274;28;45718;-70
2022/10/07 14:50:08;;;;;;;;;1.50;1.50;;;;;;;;5017503;28;45380;-69
2022/10/07 14:52:38;;;;;;;;;0.67;0.67;;;;;;;;5025677;28;45450;-69
2022/10/07 14:55:11;;;;;;;;;3.25;2.00;;;;;;;;5029122;28;45521;-68
2022/10/07 14:57:36;;;;;;;;;1.50;1.00;;;;;;;;5017565;28;45537;-69
2022/10/07 15:00:03;;;;;;;;;5.00;3.50;;;;;;;;5010619;28;45519;-69
2022/10/07 15:02:29;;;;;;;;;2.75;1.00;;;;;;;;5012545;28;46450;-70